sensor_id;sensor_type;location;lat;lon;timestamp;P1;durP1;ratioP1;P2;durP2;ratioP2
73512;SDS011;61754;55.008;73.348;2022-09-03T00:01:28;10.40;;;5.28;;
73512;SDS011;61754;55.008;73.348;2022-09-03T00:03:57;12.55;;;5.13;;
73512;SDS011;61754;55.008;73.348;2022-09-03T00:06:32;11.23;;;5.25;;
73512;SDS011;61754;55.008;73.348;2022-09-03T00:09:13;16.52;;;6.10;;
73512;SDS011;61754;55.008;73.348;2022-09-03T00:19:15;15.85;;;5.15;;
73512;SDS011;61754;55.008;73.348;2022-09-03T00:21:46;12.38;;;5.57;;
73512;SDS011;61754;55.008;73.348;2022-09-03T00:24:19;10.02;;;5.18;;
73512;SDS011;61754;55.008;73.348;2022-09-03T00:26:49;8.60;;;5.80;;
73512;SDS011;61754;55.008;73.348;2022-09-03T00:29:20;8.65;;;5.00;;
73512;SDS011;61754;55.008;73.348;2022-09-03T00:31:49;11.38;;;5.22;;
73512;SDS011;61754;55.008;73.348;2022-09-03T00:34:28;9.35;;;5.35;;
73512;SDS011;61754;55.008;73.348;2022-09-03T00:36:56;7.22;;;5.30;;
73512;SDS011;61754;55.008;73.348;2022-09-03T00:39:23;11.57;;;5.75;;
73512;SDS011;61754;55.008;73.348;2022-09-03T00:44:35;15.95;;;5.47;;
73512;SDS011;61754;55.008;73.348;2022-09-03T00:47:08;11.60;;;5.22;;
73512;SDS011;61754;55.008;73.348;2022-09-03T00:57:15;12.90;;;5.07;;
73512;SDS011;61754;55.008;73.348;2022-09-03T01:02:23;8.60;;;5.15;;
73512;SDS011;61754;55.008;73.348;2022-09-03T01:18:30;10.57;;;5.70;;
73512;SDS011;61754;55.008;73.348;2022-09-03T01:29:09;13.10;;;5.68;;
73512;SDS011;61754;55.008;73.348;2022-09-03T01:34:52;11.85;;;5.68;;
73512;SDS011;61754;55.008;73.348;2022-09-03T01:39:49;9.93;;;5.72;;
73512;SDS011;61754;55.008;73.348;2022-09-03T01:47:42;14.50;;;6.38;;
73512;SDS011;61754;55.008;73.348;2022-09-03T01:52:54;12.18;;;6.63;;
73512;SDS011;61754;55.008;73.348;2022-09-03T01:55:27;15.50;;;6.95;;
73512;SDS011;61754;55.008;73.348;2022-09-03T02:00:26;15.40;;;7.25;;
73512;SDS011;61754;55.008;73.348;2022-09-03T02:02:55;12.18;;;6.43;;
73512;SDS011;61754;55.008;73.348;2022-09-03T02:05:30;13.35;;;5.80;;
73512;SDS011;61754;55.008;73.348;2022-09-03T02:07:57;19.38;;;6.30;;
73512;SDS011;61754;55.008;73.348;2022-09-03T02:10:31;14.60;;;6.20;;
73512;SDS011;61754;55.008;73.348;2022-09-03T02:13:07;11.63;;;6.55;;
73512;SDS011;61754;55.008;73.348;2022-09-03T02:15:34;10.82;;;6.03;;
73512;SDS011;61754;55.008;73.348;2022-09-03T02:18:02;10.73;;;6.25;;
73512;SDS011;61754;55.008;73.348;2022-09-03T02:20:40;14.32;;;6.88;;
73512;SDS011;61754;55.008;73.348;2022-09-03T02:23:11;18.05;;;6.95;;
73512;SDS011;61754;55.008;73.348;2022-09-03T02:25:50;18.75;;;7.03;;
73512;SDS011;61754;55.008;73.348;2022-09-03T02:28:28;22.77;;;11.88;;
73512;SDS011;61754;55.008;73.348;2022-09-03T02:30:59;13.75;;;6.45;;
73512;SDS011;61754;55.008;73.348;2022-09-03T02:33:25;23.90;;;6.25;;
73512;SDS011;61754;55.008;73.348;2022-09-03T02:35:52;16.25;;;6.00;;
73512;SDS011;61754;55.008;73.348;2022-09-03T02:38:19;16.73;;;6.50;;
73512;SDS011;61754;55.008;73.348;2022-09-03T02:40:50;13.18;;;6.32;;
73512;SDS011;61754;55.008;73.348;2022-09-03T02:43:21;16.60;;;6.32;;
73512;SDS011;61754;55.008;73.348;2022-09-03T02:46:00;14.23;;;6.60;;
73512;SDS011;61754;55.008;73.348;2022-09-03T02:48:27;16.42;;;7.00;;
73512;SDS011;61754;55.008;73.348;2022-09-03T02:50:53;12.63;;;6.43;;
73512;SDS011;61754;55.008;73.348;2022-09-03T02:53:19;11.25;;;5.70;;
73512;SDS011;61754;55.008;73.348;2022-09-03T02:55:45;18.60;;;6.55;;
73512;SDS011;61754;55.008;73.348;2022-09-03T02:58:16;15.50;;;6.53;;
73512;SDS011;61754;55.008;73.348;2022-09-03T03:00:42;18.92;;;6.53;;
73512;SDS011;61754;55.008;73.348;2022-09-03T03:03:09;19.35;;;6.63;;
73512;SDS011;61754;55.008;73.348;2022-09-03T03:05:43;17.70;;;6.57;;
73512;SDS011;61754;55.008;73.348;2022-09-03T03:08:10;15.32;;;6.22;;
73512;SDS011;61754;55.008;73.348;2022-09-03T03:10:40;13.10;;;6.65;;
73512;SDS011;61754;55.008;73.348;2022-09-03T03:13:07;8.50;;;5.78;;
73512;SDS011;61754;55.008;73.348;2022-09-03T03:15:43;14.57;;;6.20;;
73512;SDS011;61754;55.008;73.348;2022-09-03T03:20:47;8.75;;;5.63;;
73512;SDS011;61754;55.008;73.348;2022-09-03T03:23:18;16.75;;;6.18;;
73512;SDS011;61754;55.008;73.348;2022-09-03T03:25:44;18.55;;;5.82;;
73512;SDS011;61754;55.008;73.348;2022-09-03T03:28:15;15.50;;;6.32;;
73512;SDS011;61754;55.008;73.348;2022-09-03T03:30:43;17.90;;;5.28;;
73512;SDS011;61754;55.008;73.348;2022-09-03T03:33:17;16.17;;;6.63;;
73512;SDS011;61754;55.008;73.348;2022-09-03T03:35:52;16.33;;;6.10;;
73512;SDS011;61754;55.008;73.348;2022-09-03T03:38:19;17.75;;;6.70;;
73512;SDS011;61754;55.008;73.348;2022-09-03T03:40:50;17.27;;;6.72;;
73512;SDS011;61754;55.008;73.348;2022-09-03T03:43:26;21.25;;;6.70;;
73512;SDS011;61754;55.008;73.348;2022-09-03T03:45:56;17.73;;;6.20;;
73512;SDS011;61754;55.008;73.348;2022-09-03T03:48:22;10.65;;;6.35;;
73512;SDS011;61754;55.008;73.348;2022-09-03T03:50:48;15.90;;;6.22;;
73512;SDS011;61754;55.008;73.348;2022-09-03T03:53:14;11.25;;;6.45;;
73512;SDS011;61754;55.008;73.348;2022-09-03T03:55:40;11.63;;;6.15;;
73512;SDS011;61754;55.008;73.348;2022-09-03T03:58:06;17.13;;;6.68;;
73512;SDS011;61754;55.008;73.348;2022-09-03T04:00:32;11.23;;;5.95;;
73512;SDS011;61754;55.008;73.348;2022-09-03T04:03:05;16.05;;;6.38;;
73512;SDS011;61754;55.008;73.348;2022-09-03T04:05:31;15.25;;;5.93;;
73512;SDS011;61754;55.008;73.348;2022-09-03T04:08:05;20.45;;;6.50;;
73512;SDS011;61754;55.008;73.348;2022-09-03T04:10:36;20.98;;;7.43;;
73512;SDS011;61754;55.008;73.348;2022-09-03T04:13:02;19.63;;;6.65;;
73512;SDS011;61754;55.008;73.348;2022-09-03T04:15:33;15.93;;;5.90;;
73512;SDS011;61754;55.008;73.348;2022-09-03T04:17:59;26.05;;;6.40;;
73512;SDS011;61754;55.008;73.348;2022-09-03T04:20:25;19.33;;;6.63;;
73512;SDS011;61754;55.008;73.348;2022-09-03T04:22:51;15.57;;;6.88;;
73512;SDS011;61754;55.008;73.348;2022-09-03T04:25:22;22.88;;;6.82;;
73512;SDS011;61754;55.008;73.348;2022-09-03T04:27:50;20.92;;;7.07;;
73512;SDS011;61754;55.008;73.348;2022-09-03T04:30:17;21.65;;;6.53;;
73512;SDS011;61754;55.008;73.348;2022-09-03T04:32:53;18.20;;;6.82;;
73512;SDS011;61754;55.008;73.348;2022-09-03T04:35:30;20.35;;;6.47;;
73512;SDS011;61754;55.008;73.348;2022-09-03T04:38:08;17.02;;;6.15;;
73512;SDS011;61754;55.008;73.348;2022-09-03T04:40:34;17.65;;;5.85;;
73512;SDS011;61754;55.008;73.348;2022-09-03T04:43:08;19.38;;;6.95;;
73512;SDS011;61754;55.008;73.348;2022-09-03T04:48:06;18.55;;;6.75;;
73512;SDS011;61754;55.008;73.348;2022-09-03T04:50:39;32.45;;;7.13;;
73512;SDS011;61754;55.008;73.348;2022-09-03T04:53:14;16.20;;;6.57;;
73512;SDS011;61754;55.008;73.348;2022-09-03T04:55:50;26.13;;;7.00;;
73512;SDS011;61754;55.008;73.348;2022-09-03T04:58:16;13.55;;;7.00;;
73512;SDS011;61754;55.008;73.348;2022-09-03T05:00:47;16.50;;;7.47;;
73512;SDS011;61754;55.008;73.348;2022-09-03T05:03:13;30.95;;;7.00;;
73512;SDS011;61754;55.008;73.348;2022-09-03T05:05:41;22.00;;;7.30;;
73512;SDS011;61754;55.008;73.348;2022-09-03T05:08:17;20.95;;;8.02;;
73512;SDS011;61754;55.008;73.348;2022-09-03T05:10:43;34.90;;;7.95;;
73512;SDS011;61754;55.008;73.348;2022-09-03T05:13:09;29.73;;;6.95;;
73512;SDS011;61754;55.008;73.348;2022-09-03T05:15:45;32.13;;;7.85;;
73512;SDS011;61754;55.008;73.348;2022-09-03T05:18:21;27.13;;;8.77;;
73512;SDS011;61754;55.008;73.348;2022-09-03T05:20:47;26.50;;;8.07;;
73512;SDS011;61754;55.008;73.348;2022-09-03T05:23:23;28.08;;;7.28;;
73512;SDS011;61754;55.008;73.348;2022-09-03T05:26:05;21.30;;;7.80;;
73512;SDS011;61754;55.008;73.348;2022-09-03T05:28:34;31.48;;;7.95;;
73512;SDS011;61754;55.008;73.348;2022-09-03T05:31:11;21.98;;;7.60;;
73512;SDS011;61754;55.008;73.348;2022-09-03T05:33:43;20.88;;;7.45;;
73512;SDS011;61754;55.008;73.348;2022-09-03T05:36:20;27.10;;;7.20;;
73512;SDS011;61754;55.008;73.348;2022-09-03T05:38:50;20.88;;;6.18;;
73512;SDS011;61754;55.008;73.348;2022-09-03T05:41:23;27.45;;;7.15;;
73512;SDS011;61754;55.008;73.348;2022-09-03T05:43:54;25.67;;;7.47;;
73512;SDS011;61754;55.008;73.348;2022-09-03T05:46:32;24.20;;;6.43;;
73512;SDS011;61754;55.008;73.348;2022-09-03T05:49:03;26.33;;;8.02;;
73512;SDS011;61754;55.008;73.348;2022-09-03T05:51:38;16.40;;;7.25;;
73512;SDS011;61754;55.008;73.348;2022-09-03T05:54:07;23.98;;;7.28;;
73512;SDS011;61754;55.008;73.348;2022-09-03T05:56:34;35.35;;;7.20;;
73512;SDS011;61754;55.008;73.348;2022-09-03T05:59:28;18.17;;;7.20;;
73512;SDS011;61754;55.008;73.348;2022-09-03T06:01:59;27.05;;;6.72;;
73512;SDS011;61754;55.008;73.348;2022-09-03T06:04:25;24.63;;;7.10;;
73512;SDS011;61754;55.008;73.348;2022-09-03T06:06:51;25.98;;;6.60;;
73512;SDS011;61754;55.008;73.348;2022-09-03T06:09:24;17.20;;;6.15;;
73512;SDS011;61754;55.008;73.348;2022-09-03T06:11:50;33.05;;;7.43;;
73512;SDS011;61754;55.008;73.348;2022-09-03T06:14:16;20.35;;;6.60;;
73512;SDS011;61754;55.008;73.348;2022-09-03T06:16:43;27.85;;;6.85;;
73512;SDS011;61754;55.008;73.348;2022-09-03T06:19:10;23.70;;;7.10;;
73512;SDS011;61754;55.008;73.348;2022-09-03T06:21:36;24.48;;;7.60;;
73512;SDS011;61754;55.008;73.348;2022-09-03T06:24:10;26.27;;;6.80;;
73512;SDS011;61754;55.008;73.348;2022-09-03T06:26:37;32.25;;;6.65;;
73512;SDS011;61754;55.008;73.348;2022-09-03T06:29:03;15.75;;;5.85;;
73512;SDS011;61754;55.008;73.348;2022-09-03T06:31:34;24.27;;;6.40;;
73512;SDS011;61754;55.008;73.348;2022-09-03T06:34:00;19.75;;;6.07;;
73512;SDS011;61754;55.008;73.348;2022-09-03T06:36:36;23.48;;;7.00;;
73512;SDS011;61754;55.008;73.348;2022-09-03T06:39:02;22.48;;;6.57;;
73512;SDS011;61754;55.008;73.348;2022-09-03T06:41:29;29.27;;;7.88;;
73512;SDS011;61754;55.008;73.348;2022-09-03T06:46:34;20.60;;;7.85;;
73512;SDS011;61754;55.008;73.348;2022-09-03T06:49:01;29.30;;;7.22;;
73512;SDS011;61754;55.008;73.348;2022-09-03T06:51:28;46.67;;;6.72;;
73512;SDS011;61754;55.008;73.348;2022-09-03T06:53:58;41.38;;;7.30;;
73512;SDS011;61754;55.008;73.348;2022-09-03T06:56:25;30.40;;;7.20;;
73512;SDS011;61754;55.008;73.348;2022-09-03T06:58:52;21.42;;;6.25;;
73512;SDS011;61754;55.008;73.348;2022-09-03T07:01:19;25.27;;;6.32;;
73512;SDS011;61754;55.008;73.348;2022-09-03T07:03:46;26.17;;;7.13;;
73512;SDS011;61754;55.008;73.348;2022-09-03T07:06:13;28.10;;;5.85;;
73512;SDS011;61754;55.008;73.348;2022-09-03T07:08:40;29.65;;;6.43;;
73512;SDS011;61754;55.008;73.348;2022-09-03T07:11:08;19.77;;;6.53;;
73512;SDS011;61754;55.008;73.348;2022-09-03T07:13:35;27.80;;;6.32;;
73512;SDS011;61754;55.008;73.348;2022-09-03T07:16:02;24.60;;;6.45;;
73512;SDS011;61754;55.008;73.348;2022-09-03T07:18:29;35.65;;;6.15;;
73512;SDS011;61754;55.008;73.348;2022-09-03T07:20:59;37.00;;;6.72;;
73512;SDS011;61754;55.008;73.348;2022-09-03T07:23:31;22.90;;;6.25;;
73512;SDS011;61754;55.008;73.348;2022-09-03T07:26:03;28.40;;;6.22;;
73512;SDS011;61754;55.008;73.348;2022-09-03T07:28:39;25.42;;;6.28;;
73512;SDS011;61754;55.008;73.348;2022-09-03T07:31:12;24.92;;;5.53;;
73512;SDS011;61754;55.008;73.348;2022-09-03T07:33:45;20.55;;;5.72;;
73512;SDS011;61754;55.008;73.348;2022-09-03T07:36:16;23.13;;;6.30;;
73512;SDS011;61754;55.008;73.348;2022-09-03T07:38:56;24.67;;;5.47;;
73512;SDS011;61754;55.008;73.348;2022-09-03T07:41:28;47.95;;;7.05;;
73512;SDS011;61754;55.008;73.348;2022-09-03T07:43:58;16.93;;;5.73;;
73512;SDS011;61754;55.008;73.348;2022-09-03T07:46:25;30.20;;;6.50;;
73512;SDS011;61754;55.008;73.348;2022-09-03T07:48:55;27.00;;;5.93;;
73512;SDS011;61754;55.008;73.348;2022-09-03T07:51:25;28.02;;;5.60;;
73512;SDS011;61754;55.008;73.348;2022-09-03T07:53:58;24.77;;;5.68;;
73512;SDS011;61754;55.008;73.348;2022-09-03T07:56:29;17.92;;;5.45;;
73512;SDS011;61754;55.008;73.348;2022-09-03T07:59:09;19.70;;;5.32;;
73512;SDS011;61754;55.008;73.348;2022-09-03T08:01:40;21.52;;;5.30;;
73512;SDS011;61754;55.008;73.348;2022-09-03T08:04:06;15.75;;;5.60;;
73512;SDS011;61754;55.008;73.348;2022-09-03T08:06:32;19.42;;;5.45;;
73512;SDS011;61754;55.008;73.348;2022-09-03T08:09:03;16.75;;;5.43;;
73512;SDS011;61754;55.008;73.348;2022-09-03T08:11:35;16.73;;;5.13;;
73512;SDS011;61754;55.008;73.348;2022-09-03T08:14:08;13.48;;;5.25;;
73512;SDS011;61754;55.008;73.348;2022-09-03T08:16:38;17.70;;;5.82;;
73512;SDS011;61754;55.008;73.348;2022-09-03T08:19:06;22.58;;;5.90;;
73512;SDS011;61754;55.008;73.348;2022-09-03T08:21:34;19.83;;;6.65;;
73512;SDS011;61754;55.008;73.348;2022-09-03T08:24:01;13.00;;;6.22;;
73512;SDS011;61754;55.008;73.348;2022-09-03T08:26:30;22.38;;;8.50;;
73512;SDS011;61754;55.008;73.348;2022-09-03T08:28:57;18.50;;;8.80;;
73512;SDS011;61754;55.008;73.348;2022-09-03T08:31:23;31.08;;;8.82;;
73512;SDS011;61754;55.008;73.348;2022-09-03T08:33:53;19.02;;;7.28;;
73512;SDS011;61754;55.008;73.348;2022-09-03T08:36:29;34.80;;;7.13;;
73512;SDS011;61754;55.008;73.348;2022-09-03T08:38:56;20.05;;;6.75;;
73512;SDS011;61754;55.008;73.348;2022-09-03T08:44:27;25.33;;;6.10;;
73512;SDS011;61754;55.008;73.348;2022-09-03T08:47:08;14.77;;;5.85;;
73512;SDS011;61754;55.008;73.348;2022-09-03T08:52:04;14.95;;;4.30;;
73512;SDS011;61754;55.008;73.348;2022-09-03T08:54:32;14.65;;;5.13;;
73512;SDS011;61754;55.008;73.348;2022-09-03T08:57:03;15.32;;;5.00;;
73512;SDS011;61754;55.008;73.348;2022-09-03T08:59:35;17.10;;;4.97;;
73512;SDS011;61754;55.008;73.348;2022-09-03T09:05:04;31.38;;;7.00;;
73512;SDS011;61754;55.008;73.348;2022-09-03T09:07:43;39.42;;;8.98;;
73512;SDS011;61754;55.008;73.348;2022-09-03T09:18:17;49.75;;;9.65;;
73512;SDS011;61754;55.008;73.348;2022-09-03T09:20:48;36.15;;;9.02;;
73512;SDS011;61754;55.008;73.348;2022-09-03T09:26:01;48.88;;;9.43;;
73512;SDS011;61754;55.008;73.348;2022-09-03T09:28:32;34.67;;;8.18;;
73512;SDS011;61754;55.008;73.348;2022-09-03T09:31:10;27.75;;;7.60;;
73512;SDS011;61754;55.008;73.348;2022-09-03T09:33:42;28.10;;;7.28;;
73512;SDS011;61754;55.008;73.348;2022-09-03T09:36:09;23.63;;;8.18;;
73512;SDS011;61754;55.008;73.348;2022-09-03T09:38:46;22.48;;;7.80;;
73512;SDS011;61754;55.008;73.348;2022-09-03T09:41:19;23.40;;;7.25;;
73512;SDS011;61754;55.008;73.348;2022-09-03T09:44:01;22.92;;;7.30;;
73512;SDS011;61754;55.008;73.348;2022-09-03T09:46:33;28.27;;;7.80;;
73512;SDS011;61754;55.008;73.348;2022-09-03T09:49:00;42.05;;;11.52;;
73512;SDS011;61754;55.008;73.348;2022-09-03T09:51:27;23.50;;;7.57;;
73512;SDS011;61754;55.008;73.348;2022-09-03T09:56:30;40.38;;;9.48;;
73512;SDS011;61754;55.008;73.348;2022-09-03T09:59:06;35.38;;;12.20;;
73512;SDS011;61754;55.008;73.348;2022-09-03T10:01:33;31.05;;;12.43;;
73512;SDS011;61754;55.008;73.348;2022-09-03T10:04:08;35.90;;;12.95;;
73512;SDS011;61754;55.008;73.348;2022-09-03T10:06:35;40.20;;;12.50;;
73512;SDS011;61754;55.008;73.348;2022-09-03T10:09:27;41.10;;;12.55;;
73512;SDS011;61754;55.008;73.348;2022-09-03T10:14:50;28.00;;;10.35;;
73512;SDS011;61754;55.008;73.348;2022-09-03T10:22:56;35.78;;;9.18;;
73512;SDS011;61754;55.008;73.348;2022-09-03T10:25:25;21.60;;;6.55;;
73512;SDS011;61754;55.008;73.348;2022-09-03T10:28:02;15.18;;;5.70;;
73512;SDS011;61754;55.008;73.348;2022-09-03T10:30:28;17.70;;;5.70;;
73512;SDS011;61754;55.008;73.348;2022-09-03T10:35:42;20.70;;;6.47;;
73512;SDS011;61754;55.008;73.348;2022-09-03T10:55:52;35.95;;;8.68;;
73512;SDS011;61754;55.008;73.348;2022-09-03T10:58:34;26.48;;;8.82;;
73512;SDS011;61754;55.008;73.348;2022-09-03T11:01:17;32.47;;;9.95;;
73512;SDS011;61754;55.008;73.348;2022-09-03T11:06:34;37.65;;;10.70;;
73512;SDS011;61754;55.008;73.348;2022-09-03T11:09:14;36.00;;;10.50;;
73512;SDS011;61754;55.008;73.348;2022-09-03T11:14:43;34.45;;;11.63;;
73512;SDS011;61754;55.008;73.348;2022-09-03T11:17:14;44.85;;;11.82;;
73512;SDS011;61754;55.008;73.348;2022-09-03T11:19:51;51.53;;;12.60;;
73512;SDS011;61754;55.008;73.348;2022-09-03T11:22:19;45.47;;;13.80;;
73512;SDS011;61754;55.008;73.348;2022-09-03T11:24:53;40.83;;;12.55;;
73512;SDS011;61754;55.008;73.348;2022-09-03T11:28:06;41.85;;;13.75;;
73512;SDS011;61754;55.008;73.348;2022-09-03T11:30:23;44.78;;;15.27;;
73512;SDS011;61754;55.008;73.348;2022-09-03T11:32:59;42.25;;;11.80;;
73512;SDS011;61754;55.008;73.348;2022-09-03T11:35:28;35.08;;;13.27;;
73512;SDS011;61754;55.008;73.348;2022-09-03T11:40:42;44.10;;;14.02;;
73512;SDS011;61754;55.008;73.348;2022-09-03T11:43:28;44.00;;;12.82;;
73512;SDS011;61754;55.008;73.348;2022-09-03T11:46:01;35.83;;;12.02;;
73512;SDS011;61754;55.008;73.348;2022-09-03T11:48:33;29.15;;;9.70;;
73512;SDS011;61754;55.008;73.348;2022-09-03T11:51:01;34.17;;;11.00;;
73512;SDS011;61754;55.008;73.348;2022-09-03T11:53:36;25.35;;;9.27;;
73512;SDS011;61754;55.008;73.348;2022-09-03T11:58:34;24.25;;;9.00;;
73512;SDS011;61754;55.008;73.348;2022-09-03T12:01:01;27.30;;;9.65;;
73512;SDS011;61754;55.008;73.348;2022-09-03T12:03:41;18.75;;;7.20;;
73512;SDS011;61754;55.008;73.348;2022-09-03T12:06:20;25.08;;;8.65;;
73512;SDS011;61754;55.008;73.348;2022-09-03T12:09:05;20.55;;;9.02;;
73512;SDS011;61754;55.008;73.348;2022-09-03T12:11:48;26.05;;;8.82;;
73512;SDS011;61754;55.008;73.348;2022-09-03T12:14:43;28.55;;;9.00;;
73512;SDS011;61754;55.008;73.348;2022-09-03T12:19:53;28.70;;;10.20;;
73512;SDS011;61754;55.008;73.348;2022-09-03T12:22:21;25.00;;;9.25;;
73512;SDS011;61754;55.008;73.348;2022-09-03T12:24:47;33.45;;;10.32;;
73512;SDS011;61754;55.008;73.348;2022-09-03T12:27:19;22.10;;;10.90;;
73512;SDS011;61754;55.008;73.348;2022-09-03T12:29:49;28.67;;;9.97;;
73512;SDS011;61754;55.008;73.348;2022-09-03T12:32:34;23.63;;;9.68;;
73512;SDS011;61754;55.008;73.348;2022-09-03T12:37:44;23.98;;;9.27;;
73512;SDS011;61754;55.008;73.348;2022-09-03T12:40:19;35.75;;;9.85;;
73512;SDS011;61754;55.008;73.348;2022-09-03T12:43:10;20.13;;;9.45;;
73512;SDS011;61754;55.008;73.348;2022-09-03T12:45:41;34.80;;;10.85;;
73512;SDS011;61754;55.008;73.348;2022-09-03T12:48:15;38.08;;;12.43;;
73512;SDS011;61754;55.008;73.348;2022-09-03T12:50:47;27.27;;;9.90;;
73512;SDS011;61754;55.008;73.348;2022-09-03T12:53:17;31.70;;;9.43;;
73512;SDS011;61754;55.008;73.348;2022-09-03T12:55:51;26.92;;;9.38;;
73512;SDS011;61754;55.008;73.348;2022-09-03T12:58:31;23.65;;;9.65;;
73512;SDS011;61754;55.008;73.348;2022-09-03T13:01:07;25.52;;;10.38;;
73512;SDS011;61754;55.008;73.348;2022-09-03T13:03:49;29.38;;;10.15;;
73512;SDS011;61754;55.008;73.348;2022-09-03T13:06:24;42.08;;;10.45;;
73512;SDS011;61754;55.008;73.348;2022-09-03T13:09:03;34.60;;;10.93;;
73512;SDS011;61754;55.008;73.348;2022-09-03T13:11:32;35.55;;;16.15;;
73512;SDS011;61754;55.008;73.348;2022-09-03T13:14:02;34.15;;;16.23;;
73512;SDS011;61754;55.008;73.348;2022-09-03T13:21:44;37.10;;;11.68;;
73512;SDS011;61754;55.008;73.348;2022-09-03T13:37:52;36.92;;;10.23;;
73512;SDS011;61754;55.008;73.348;2022-09-03T13:40:36;30.48;;;10.23;;
73512;SDS011;61754;55.008;73.348;2022-09-03T13:43:19;27.90;;;10.77;;
73512;SDS011;61754;55.008;73.348;2022-09-03T13:45:59;26.48;;;9.75;;
73512;SDS011;61754;55.008;73.348;2022-09-03T13:56:47;26.02;;;9.73;;
73512;SDS011;61754;55.008;73.348;2022-09-03T13:59:35;29.23;;;11.25;;
73512;SDS011;61754;55.008;73.348;2022-09-03T14:02:21;23.17;;;8.90;;
73512;SDS011;61754;55.008;73.348;2022-09-03T14:08:14;22.08;;;8.13;;
73512;SDS011;61754;55.008;73.348;2022-09-03T14:13:11;25.85;;;9.23;;
73512;SDS011;61754;55.008;73.348;2022-09-03T14:21:18;33.65;;;7.68;;
73512;SDS011;61754;55.008;73.348;2022-09-03T14:26:28;24.65;;;7.20;;
73512;SDS011;61754;55.008;73.348;2022-09-03T14:29:00;23.30;;;8.07;;
73512;SDS011;61754;55.008;73.348;2022-09-03T14:34:36;32.15;;;8.20;;
73512;SDS011;61754;55.008;73.348;2022-09-03T14:39:53;27.08;;;8.45;;
73512;SDS011;61754;55.008;73.348;2022-09-03T14:45:12;29.98;;;8.50;;
73512;SDS011;61754;55.008;73.348;2022-09-03T14:47:49;27.73;;;7.22;;
73512;SDS011;61754;55.008;73.348;2022-09-03T14:52:58;32.00;;;8.07;;
73512;SDS011;61754;55.008;73.348;2022-09-03T14:55:37;31.15;;;7.05;;
73512;SDS011;61754;55.008;73.348;2022-09-03T15:00:59;24.27;;;8.38;;
73512;SDS011;61754;55.008;73.348;2022-09-03T15:06:22;21.73;;;7.60;;
73512;SDS011;61754;55.008;73.348;2022-09-03T15:11:23;25.27;;;7.65;;
73512;SDS011;61754;55.008;73.348;2022-09-03T15:13:59;24.88;;;7.38;;
73512;SDS011;61754;55.008;73.348;2022-09-03T15:16:46;34.22;;;8.18;;
73512;SDS011;61754;55.008;73.348;2022-09-03T15:24:56;39.28;;;7.65;;
73512;SDS011;61754;55.008;73.348;2022-09-03T15:32:46;35.85;;;7.28;;
73512;SDS011;61754;55.008;73.348;2022-09-03T15:37:56;27.38;;;6.55;;
73512;SDS011;61754;55.008;73.348;2022-09-03T15:40:30;25.35;;;6.78;;
73512;SDS011;61754;55.008;73.348;2022-09-03T15:43:03;22.80;;;6.72;;
73512;SDS011;61754;55.008;73.348;2022-09-03T15:45:34;24.27;;;6.50;;
73512;SDS011;61754;55.008;73.348;2022-09-03T15:48:32;24.90;;;6.15;;
73512;SDS011;61754;55.008;73.348;2022-09-03T15:51:05;24.63;;;6.38;;
73512;SDS011;61754;55.008;73.348;2022-09-03T15:53:49;21.73;;;5.97;;
73512;SDS011;61754;55.008;73.348;2022-09-03T15:58:57;27.98;;;6.18;;
73512;SDS011;61754;55.008;73.348;2022-09-03T16:07:29;29.35;;;7.03;;
73512;SDS011;61754;55.008;73.348;2022-09-03T16:23:40;22.95;;;6.45;;
73512;SDS011;61754;55.008;73.348;2022-09-03T16:25:57;30.15;;;6.97;;
73512;SDS011;61754;55.008;73.348;2022-09-03T16:31:10;26.67;;;5.75;;
73512;SDS011;61754;55.008;73.348;2022-09-03T16:36:31;34.35;;;5.80;;
73512;SDS011;61754;55.008;73.348;2022-09-03T16:39:11;31.70;;;7.32;;
73512;SDS011;61754;55.008;73.348;2022-09-03T16:52:11;36.67;;;7.07;;
73512;SDS011;61754;55.008;73.348;2022-09-03T17:00:14;33.08;;;6.43;;
73512;SDS011;61754;55.008;73.348;2022-09-03T17:08:15;25.48;;;6.07;;
73512;SDS011;61754;55.008;73.348;2022-09-03T17:10:45;31.90;;;7.10;;
73512;SDS011;61754;55.008;73.348;2022-09-03T17:16:22;38.85;;;7.90;;
73512;SDS011;61754;55.008;73.348;2022-09-03T17:19:01;20.80;;;5.82;;
73512;SDS011;61754;55.008;73.348;2022-09-03T17:24:22;26.30;;;5.85;;
73512;SDS011;61754;55.008;73.348;2022-09-03T17:27:09;25.80;;;5.70;;
73512;SDS011;61754;55.008;73.348;2022-09-03T17:29:54;32.22;;;6.25;;
73512;SDS011;61754;55.008;73.348;2022-09-03T17:45:07;39.83;;;6.80;;
73512;SDS011;61754;55.008;73.348;2022-09-03T17:50:06;30.67;;;6.53;;
73512;SDS011;61754;55.008;73.348;2022-09-03T17:52:46;37.15;;;7.13;;
73512;SDS011;61754;55.008;73.348;2022-09-03T17:55:16;27.42;;;6.53;;
73512;SDS011;61754;55.008;73.348;2022-09-03T17:57:51;39.67;;;6.95;;
73512;SDS011;61754;55.008;73.348;2022-09-03T18:00:33;28.88;;;7.13;;
73512;SDS011;61754;55.008;73.348;2022-09-03T18:08:19;31.27;;;7.60;;
73512;SDS011;61754;55.008;73.348;2022-09-03T18:11:08;42.58;;;8.07;;
73512;SDS011;61754;55.008;73.348;2022-09-03T18:17:12;24.80;;;8.48;;
73512;SDS011;61754;55.008;73.348;2022-09-03T18:21:56;36.22;;;9.85;;
73512;SDS011;61754;55.008;73.348;2022-09-03T18:24:47;51.25;;;11.10;;
73512;SDS011;61754;55.008;73.348;2022-09-03T18:27:53;47.42;;;10.23;;
73512;SDS011;61754;55.008;73.348;2022-09-03T18:30:39;209.38;;;21.98;;
73512;SDS011;61754;55.008;73.348;2022-09-03T18:33:24;195.85;;;23.27;;
73512;SDS011;61754;55.008;73.348;2022-09-03T18:36:09;170.75;;;26.17;;
73512;SDS011;61754;55.008;73.348;2022-09-03T18:38:55;193.43;;;29.15;;
73512;SDS011;61754;55.008;73.348;2022-09-03T18:47:40;86.28;;;18.70;;
73512;SDS011;61754;55.008;73.348;2022-09-03T18:50:34;61.97;;;12.32;;
73512;SDS011;61754;55.008;73.348;2022-09-03T18:56:14;76.28;;;9.85;;
73512;SDS011;61754;55.008;73.348;2022-09-03T18:59:21;62.35;;;9.70;;
73512;SDS011;61754;55.008;73.348;2022-09-03T19:03:07;46.20;;;8.73;;
73512;SDS011;61754;55.008;73.348;2022-09-03T19:11:08;33.42;;;7.43;;
73512;SDS011;61754;55.008;73.348;2022-09-03T19:14:05;46.92;;;8.65;;
73512;SDS011;61754;55.008;73.348;2022-09-03T19:20:13;71.90;;;11.60;;
73512;SDS011;61754;55.008;73.348;2022-09-03T19:23:01;74.97;;;13.23;;
73512;SDS011;61754;55.008;73.348;2022-09-03T19:25:46;79.40;;;12.85;;
73512;SDS011;61754;55.008;73.348;2022-09-03T19:28:30;51.80;;;8.70;;
73512;SDS011;61754;55.008;73.348;2022-09-03T19:31:26;48.38;;;8.60;;
73512;SDS011;61754;55.008;73.348;2022-09-03T19:37:26;13.32;;;5.65;;
73512;SDS011;61754;55.008;73.348;2022-09-03T19:52:13;18.02;;;4.97;;
73512;SDS011;61754;55.008;73.348;2022-09-03T19:55:03;14.40;;;3.95;;
73512;SDS011;61754;55.008;73.348;2022-09-03T19:57:49;10.15;;;4.00;;
73512;SDS011;61754;55.008;73.348;2022-09-03T20:00:36;4.97;;;3.65;;
73512;SDS011;61754;55.008;73.348;2022-09-03T20:03:20;7.45;;;3.42;;
73512;SDS011;61754;55.008;73.348;2022-09-03T20:06:10;4.95;;;3.35;;
73512;SDS011;61754;55.008;73.348;2022-09-03T20:08:55;8.00;;;3.45;;
73512;SDS011;61754;55.008;73.348;2022-09-03T20:11:43;11.70;;;4.35;;
73512;SDS011;61754;55.008;73.348;2022-09-03T20:14:13;10.70;;;3.58;;
73512;SDS011;61754;55.008;73.348;2022-09-03T20:16:56;10.90;;;3.17;;
73512;SDS011;61754;55.008;73.348;2022-09-03T20:22:25;8.20;;;3.80;;